Time;durP1;ratioP1;P1;durP2;ratioP2;P2;SDS_P1;SDS_P2;PMS_P1;PMS_P2;Temp;Humidity;BMP_temperature;BMP_pressure;BME280_temperature;BME280_humidity;BME280_pressure;Samples;Min_cycle;Max_cycle;Signal;HPM_P1;HPM_P2
2022/03/09 00:00:18;;;;;;;262.60;146.50;;;;;;;4.26;61.46;101242.17;108790;1276;22014;-80
2022/03/09 00:03:20;;;;;;;230.20;131.00;;;;;;;4.24;61.46;101238.45;108278;1279;22936;-80
2022/03/09 00:05:52;;;;;;;225.00;130.00;;;;;;;4.23;61.41;101235.60;108354;1279;23087;-80
2022/03/09 00:08:24;;;;;;;235.60;133.60;;;;;;;4.20;61.45;101235.06;107914;1286;22004;-78
2022/03/09 00:10:56;;;;;;;243.60;137.50;;;;;;;4.21;61.60;101237.29;108066;1283;24312;-81
2022/03/09 00:13:30;;;;;;;237.20;137.30;;;;;;;4.21;61.63;101231.51;108029;1285;22514;-78
2022/03/09 00:16:10;;;;;;;236.50;137.00;;;;;;;4.20;61.67;101226.05;107668;1285;21995;-79
2022/03/09 00:18:57;;;;;;;236.70;137.20;;;;;;;4.16;61.69;101226.82;107939;1282;22003;-80
2022/03/09 00:21:32;;;;;;;235.70;136.60;;;;;;;4.10;61.85;101224.08;108293;1276;22185;-78
2022/03/09 00:24:07;;;;;;;236.20;135.60;;;;;;;4.04;61.75;101221.36;108068;1280;23731;-78
2022/03/09 00:26:36;;;;;;;223.40;133.90;;;;;;;3.98;61.81;101218.64;108376;1276;22048;-78
2022/03/09 00:29:07;;;;;;;225.90;134.20;;;;;;;3.93;61.91;101219.66;108341;1277;24387;-77
2022/03/09 00:31:42;;;;;;;221.60;128.70;;;;;;;3.90;62.04;101220.77;108399;1278;21988;-78
2022/03/09 00:34:21;;;;;;;211.50;125.40;;;;;;;3.87;62.19;101219.91;108174;1276;22009;-78
2022/03/09 00:37:04;;;;;;;204.80;119.70;;;;;;;3.85;62.23;101220.40;108443;1276;22004;-78
2022/03/09 00:39:39;;;;;;;202.60;117.50;;;;;;;3.82;62.24;101221.11;108024;1283;23084;-78
2022/03/09 00:42:17;;;;;;;189.70;111.20;;;;;;;3.78;62.26;101220.65;108098;1277;21994;-78
2022/03/09 00:44:47;;;;;;;192.80;115.90;;;;;;;3.75;62.37;101221.75;108412;1276;22112;-78
2022/03/09 00:47:25;;;;;;;191.40;112.70;;;;;;;3.70;62.37;101225.76;108340;1277;22062;-78
2022/03/09 00:49:54;;;;;;;170.80;103.20;;;;;;;3.62;62.54;101222.65;108068;1281;23028;-78
2022/03/09 00:52:26;;;;;;;132.20;82.40;;;;;;;3.52;62.60;101220.14;107771;1279;478558;-78
2022/03/09 00:54:57;;;;;;;98.50;65.20;;;;;;;3.43;62.84;101216.95;108079;1282;22872;-78
2022/03/09 00:57:36;;;;;;;99.50;64.60;;;;;;;3.36;63.13;101220.19;108068;1276;21965;-78
2022/03/09 01:00:12;;;;;;;93.90;62.60;;;;;;;3.30;63.28;101222.98;108409;1276;24310;-78
2022/03/09 01:02:47;;;;;;;98.40;60.90;;;;;;;3.24;63.35;101222.63;108447;1276;22064;-78
2022/03/09 01:05:33;;;;;;;82.60;55.30;;;;;;;3.19;63.44;101216.00;108006;1282;23116;-79
2022/03/09 01:08:04;;;;;;;76.00;49.90;;;;;;;3.14;63.55;101217.04;108290;1278;21983;-77
2022/03/09 01:10:34;;;;;;;67.30;46.10;;;;;;;3.12;63.66;101217.03;108385;1279;21999;-77
2022/03/09 01:13:10;;;;;;;77.80;50.00;;;;;;;3.09;63.82;101215.29;108402;1275;21981;-77
2022/03/09 01:15:58;;;;;;;69.80;46.90;;;;;;;3.04;63.88;101212.42;108651;1273;22056;-77
2022/03/09 01:18:59;;;;;;;68.00;42.90;;;;;;;3.00;63.92;101208.37;108583;1273;21987;-77
2022/03/09 01:21:30;;;;;;;66.90;44.50;;;;;;;2.95;64.13;101209.55;108351;1279;23089;-78
2022/03/09 01:24:09;;;;;;;62.60;41.50;;;;;;;2.90;64.21;101207.13;108521;1275;22060;-77
2022/03/09 01:26:43;;;;;;;63.10;41.00;;;;;;;2.83;64.16;101204.41;108530;1275;23655;-77
2022/03/09 01:29:13;;;;;;;62.10;40.40;;;;;;;2.75;64.26;101201.03;108670;1273;24303;-77
2022/03/09 01:31:44;;;;;;;59.70;37.90;;;;;;;2.68;64.26;101194.05;108480;1275;22284;-78
2022/03/09 01:34:26;;;;;;;57.30;37.10;;;;;;;2.58;64.40;101185.48;108445;1275;23168;-77
2022/03/09 01:37:05;;;;;;;54.80;35.40;;;;;;;2.52;64.66;101181.30;108367;1276;22143;-77
2022/03/09 01:39:46;;;;;;;52.40;36.70;;;;;;;2.49;64.92;101175.58;108505;1273;22061;-78
2022/03/09 01:42:16;;;;;;;54.20;35.50;;;;;;;2.48;65.21;101175.33;108721;1270;21969;-79
2022/03/09 01:44:51;;;;;;;51.50;35.20;;;;;;;2.49;65.29;101173.68;108765;1270;21988;-78
2022/03/09 01:47:24;;;;;;;52.40;37.00;;;;;;;2.48;65.29;101168.02;108702;1273;21981;-78
2022/03/09 01:50:11;;;;;;;57.40;44.30;;;;;;;2.43;65.27;101172.46;108816;1272;23901;-79
2022/03/09 01:52:59;;;;;;;64.70;43.00;;;;;;;2.37;65.09;101175.26;108583;1273;22857;-78
2022/03/09 01:55:35;;;;;;;60.20;41.40;;;;;;;2.31;65.17;101173.71;108623;1273;23773;-78
2022/03/09 01:58:17;;;;;;;79.70;57.00;;;;;;;2.27;65.31;101180.08;108718;1273;22033;-78
2022/03/09 02:01:03;;;;;;;92.80;68.30;;;;;;;2.23;65.60;101180.31;108490;1276;22028;-78
2022/03/09 02:03:36;;;;;;;72.60;50.70;;;;;;;2.20;65.69;101181.01;108485;1276;21995;-78
2022/03/09 02:06:06;;;;;;;74.30;52.40;;;;;;;2.19;65.84;101178.48;108397;1277;23693;-78
2022/03/09 02:11:43;;;;;;;75.30;54.00;;;;;;;2.14;65.93;101178.79;108135;1281;21978;-78
2022/03/09 02:14:45;;;;;;;77.80;55.60;;;;;;;2.11;65.96;101174.42;108184;1280;23191;-78
2022/03/09 02:17:27;;;;;;;80.70;57.10;;;;;;;2.08;65.78;101175.14;108272;1276;21991;-78
2022/03/09 02:20:11;;;;;;;89.70;62.20;;;;;;;2.06;65.78;101177.02;108426;1273;22021;-77
2022/03/09 02:22:53;;;;;;;84.90;61.60;;;;;;;2.04;65.79;101178.00;108668;1273;23653;-78
2022/03/09 02:25:50;;;;;;;78.60;57.60;;;;;;;2.02;65.82;101174.48;108393;1278;22007;-78
2022/03/09 02:28:22;;;;;;;83.20;57.60;;;;;;;1.99;66.04;101175.67;108369;1279;23590;-78
2022/03/09 02:31:01;;;;;;;80.50;59.30;;;;;;;1.96;66.09;101176.20;108354;1276;23219;-77
2022/03/09 02:33:40;;;;;;;87.10;62.80;;;;;;;1.94;66.04;101176.70;108459;1272;23922;-78
2022/03/09 02:36:29;;;;;;;73.70;52.30;;;;;;;1.90;66.13;101175.52;108537;1273;23636;-79
2022/03/09 02:39:11;;;;;;;61.50;46.50;;;;;;;1.88;66.32;101176.70;108592;1276;23111;-78
2022/03/09 02:41:55;;;;;;;59.10;43.30;;;;;;;1.87;66.52;101173.45;108300;1276;21976;-78
2022/03/09 02:44:40;;;;;;;63.00;46.40;;;;;;;1.88;66.60;101172.71;108012;1280;21997;-78
2022/03/09 02:47:23;;;;;;;58.00;41.20;;;;;;;1.89;66.61;101172.48;108310;1278;21995;-78
2022/03/09 02:49:55;;;;;;;56.90;42.20;;;;;;;1.92;66.64;101172.12;108285;1280;22084;-79
2022/03/09 02:52:37;;;;;;;64.80;45.10;;;;;;;1.96;66.78;101171.56;108327;1279;22050;-78
2022/03/09 02:55:25;;;;;;;60.10;43.90;;;;;;;1.97;66.70;101174.60;107769;1284;23028;-77
2022/03/09 02:57:57;;;;;;;52.90;39.00;;;;;;;1.99;66.72;101174.15;107586;1289;22351;-78
2022/03/09 03:00:44;;;;;;;55.50;40.20;;;;;;;2.00;66.67;101169.25;107344;1290;22008;-78
2022/03/09 03:03:22;;;;;;;57.10;37.70;;;;;;;2.02;66.62;101165.42;107756;1281;22509;-79
2022/03/09 03:06:07;;;;;;;49.50;37.20;;;;;;;2.05;66.67;101162.46;108277;1280;22008;-79
2022/03/09 03:08:40;;;;;;;51.50;36.70;;;;;;;2.09;66.58;101167.46;108296;1279;23106;-79
2022/03/09 03:11:24;;;;;;;50.30;35.70;;;;;;;2.10;66.39;101168.92;107959;1283;22014;-79
2022/03/09 03:13:56;;;;;;;50.30;36.30;;;;;;;2.11;66.31;101169.43;107430;1289;23728;-79
2022/03/09 03:16:27;;;;;;;56.70;37.90;;;;;;;2.14;66.22;101174.46;107642;1282;21995;-79
2022/03/09 03:18:59;;;;;;;51.00;35.90;;;;;;;2.17;66.03;101178.63;107930;1283;22021;-81
2022/03/09 03:21:39;;;;;;;52.10;34.60;;;;;;;2.16;65.94;101178.14;108395;1279;22078;-78
2022/03/09 03:24:08;;;;;;;49.20;35.40;;;;;;;2.17;65.91;101177.04;107995;1282;23608;-78
2022/03/09 03:27:00;;;;;;;54.40;35.60;;;;;;;2.17;65.89;101180.01;108023;1283;24388;-78
2022/03/09 03:29:30;;;;;;;62.10;36.90;;;;;;;2.17;65.86;101184.52;107849;1283;23746;-78
2022/03/09 03:31:59;;;;;;;47.50;32.50;;;;;;;2.15;65.72;101188.31;108032;1279;23479;-78
2022/03/09 03:34:29;;;;;;;46.90;33.20;;;;;;;2.11;65.64;101187.48;108190;1277;24399;-78
2022/03/09 03:37:09;;;;;;;43.60;31.20;;;;;;;2.10;65.61;101194.30;108207;1276;22000;-78
2022/03/09 03:39:47;;;;;;;41.50;29.90;;;;;;;2.10;65.59;101196.23;108262;1277;22471;-78
2022/03/09 03:42:17;;;;;;;43.30;29.50;;;;;;;2.09;65.51;101198.35;108111;1279;23562;-78
2022/03/09 03:44:49;;;;;;;46.90;32.90;;;;;;;2.08;65.35;101198.56;108418;1276;23645;-77
2022/03/09 03:47:22;;;;;;;41.80;29.40;;;;;;;2.08;65.29;101197.55;108261;1279;22010;-78
2022/03/09 03:49:52;;;;;;;42.00;31.30;;;;;;;2.10;65.24;101196.02;108357;1279;21994;-78
2022/03/09 03:52:26;;;;;;;41.90;28.50;;;;;;;2.12;65.15;101194.00;108378;1278;22948;-78
2022/03/09 03:55:06;;;;;;;45.10;30.40;;;;;;;2.13;65.03;101191.84;108179;1279;21988;-77
2022/03/09 03:57:39;;;;;;;43.20;30.50;;;;;;;2.14;64.96;101195.27;108326;1279;22649;-79
2022/03/09 04:00:23;;;;;;;;;;;;;;;;;;;;;
2022/03/09 04:03:13;;;;;;;39.70;27.70;;;;;;;2.15;64.79;101196.27;107695;1286;22805;-77
2022/03/09 04:05:51;;;;;;;39.90;28.10;;;;;;;2.14;64.68;101196.70;107871;1279;22007;-78
2022/03/09 04:08:26;;;;;;;36.30;27.90;;;;;;;2.11;64.62;101196.02;108450;1273;21981;-78
2022/03/09 04:11:23;;;;;;;41.50;29.60;;;;;;;2.08;64.68;101195.30;108481;1276;21996;-78
2022/03/09 04:13:55;;;;;;;38.50;28.40;;;;;;;2.06;64.65;101194.88;108129;1280;22417;-79
2022/03/09 04:16:26;;;;;;;38.30;28.30;;;;;;;2.07;64.62;101199.90;107681;1285;21965;-77
2022/03/09 04:18:57;;;;;;;41.00;28.30;;;;;;;2.07;64.40;101201.27;107606;1286;22021;-77
2022/03/09 04:21:34;;;;;;;39.40;28.40;;;;;;;2.07;64.37;101198.98;107584;1286;23769;-78
2022/03/09 04:24:14;;;;;;;39.40;27.20;;;;;;;2.09;64.24;101197.88;107259;1286;22269;-79
2022/03/09 04:26:53;;;;;;;38.40;26.60;;;;;;;2.09;64.11;101202.02;107668;1286;22082;-79
2022/03/09 04:29:23;;;;;;;37.40;27.60;;;;;;;2.08;64.13;101206.92;107654;1286;22004;-78
2022/03/09 04:31:53;;;;;;;39.30;27.30;;;;;;;2.09;64.13;101207.27;107709;1286;23069;-78
2022/03/09 04:34:26;;;;;;;36.20;25.50;;;;;;;2.08;64.08;101208.50;108038;1279;23125;-79
2022/03/09 04:37:12;;;;;;;33.50;25.70;;;;;;;2.06;64.05;101207.23;108403;1279;23981;-78
2022/03/09 04:39:46;;;;;;;38.40;26.90;;;;;;;2.01;63.98;101206.33;108261;1280;23683;-78
2022/03/09 04:42:28;;;;;;;34.10;26.90;;;;;;;1.97;63.93;101205.70;108056;1276;23931;-78
2022/03/09 04:45:15;;;;;;;36.90;25.80;;;;;;;1.96;63.92;101209.09;108076;1282;23068;-79
2022/03/09 04:48:02;;;;;;;35.20;26.80;;;;;;;1.95;63.81;101210.85;108067;1282;23422;-79
2022/03/09 04:50:34;;;;;;;36.00;25.90;;;;;;;1.96;63.78;101211.85;108060;1279;22062;-79
2022/03/09 04:53:15;;;;;;;33.00;24.70;;;;;;;1.97;63.72;101213.00;108018;1280;21975;-78
2022/03/09 04:55:44;;;;;;;35.70;25.70;;;;;;;1.98;63.63;101216.08;107508;1288;22001;-79
2022/03/09 04:58:24;;;;;;;37.70;26.90;;;;;;;1.97;63.58;101212.65;107624;1288;23544;-78
2022/03/09 05:00:57;;;;;;;34.60;26.20;;;;;;;1.93;63.51;101209.40;107461;1286;23084;-79
2022/03/09 05:03:34;;;;;;;36.70;26.60;;;;;;;1.89;63.46;101211.91;107987;1282;22010;-79
2022/03/09 05:06:09;;;;;;;37.20;25.80;;;;;;;1.84;63.40;101215.33;108149;1279;24366;-79
2022/03/09 05:08:47;;;;;;;38.30;28.00;;;;;;;1.76;63.35;101213.91;108075;1282;23750;-79
2022/03/09 05:11:19;;;;;;;39.00;27.40;;;;;;;1.69;63.43;101214.29;108119;1280;23803;-79
2022/03/09 05:13:49;;;;;;;43.60;26.40;;;;;;;1.62;63.39;101217.63;108041;1279;22028;-79
2022/03/09 05:16:24;;;;;;;34.40;24.60;;;;;;;1.57;63.32;101218.83;108222;1282;22003;-79
2022/03/09 05:18:58;;;;;;;42.30;25.70;;;;;;;1.51;63.37;101222.29;108373;1277;23015;-80
2022/03/09 05:21:34;;;;;;;36.20;24.40;;;;;;;1.48;63.47;101225.09;108226;1283;22099;-79
2022/03/09 05:24:29;;;;;;;36.30;24.90;;;;;;;1.44;63.41;101222.33;107881;1288;23633;-80
2022/03/09 05:26:59;;;;;;;39.50;26.70;;;;;;;1.41;63.48;101224.27;107771;1288;23044;-79
2022/03/09 05:29:31;;;;;;;37.50;27.30;;;;;;;1.37;63.49;101222.73;107639;1286;23690;-79
2022/03/09 05:32:06;;;;;;;39.40;26.80;;;;;;;1.34;63.53;101219.79;107719;1283;23070;-79
2022/03/09 05:34:43;;;;;;;37.10;28.60;;;;;;;1.28;63.52;101222.02;108173;1283;23020;-79
2022/03/09 05:37:16;;;;;;;42.60;29.60;;;;;;;1.23;63.60;101222.63;108051;1283;23534;-80
2022/03/09 05:39:47;;;;;;;44.30;31.00;;;;;;;1.18;63.59;101226.95;107793;1288;23704;-80
2022/03/09 05:42:51;;;;;;;42.20;31.90;;;;;;;1.13;63.59;101226.35;107793;1288;22039;-80
2022/03/09 05:45:21;;;;;;;44.10;31.20;;;;;;;1.09;63.69;101232.96;107594;1289;22005;-80
2022/03/09 05:47:57;;;;;;;36.60;29.00;;;;;;;1.06;63.84;101231.59;108033;1286;23740;-80
2022/03/09 05:50:45;;;;;;;38.40;29.50;;;;;;;1.06;63.83;101231.05;107991;1286;23087;-80
2022/03/09 05:53:20;;;;;;;38.90;28.70;;;;;;;1.08;64.06;101234.06;107966;1289;23023;-79
2022/03/09 05:56:04;;;;;;;;;;;;;;;1.09;64.12;101235.24;107146;1292;21995;-77
2022/03/09 05:58:46;;;;;;;38.10;24.60;;;;;;;1.04;64.12;101241.22;106958;1294;22005;-79
2022/03/09 06:01:26;;;;;;;33.00;25.30;;;;;;;1.03;64.29;101245.98;107364;1292;22007;-79
2022/03/09 06:04:08;;;;;;;32.10;24.30;;;;;;;1.04;64.44;101248.17;107819;1287;22797;-79
2022/03/09 06:07:01;;;;;;;29.60;22.70;;;;;;;1.05;64.44;101250.38;107757;1285;23679;-79
2022/03/09 06:09:40;;;;;;;32.30;21.70;;;;;;;1.06;64.45;101248.95;107788;1286;22047;-83
2022/03/09 06:12:15;;;;;;;32.30;22.40;;;;;;;1.05;64.50;101251.59;107891;1286;22792;-83
2022/03/09 06:14:50;;;;;;;30.30;23.50;;;;;;;1.04;64.53;101246.77;108170;1283;24383;-83
2022/03/09 06:17:29;;;;;;;33.00;23.90;;;;;;;1.06;64.58;101247.01;107790;1290;23076;-83
2022/03/09 06:24:11;;;;;;;42.20;29.00;;;;;;;1.14;64.70;101240.16;109718;1266;22085;-86
2022/03/09 06:27:46;;;;;;;43.60;28.10;;;;;;;1.22;64.73;101244.39;108933;1275;21994;-79
2022/03/09 06:30:44;;;;;;;43.40;28.30;;;;;;;1.32;64.65;101253.73;108698;1279;22406;-83
2022/03/09 06:33:15;;;;;;;;;;;;;;;1.41;64.54;101258.43;108366;1279;22063;-84
2022/03/09 06:36:11;;;;;;;46.30;29.40;;;;;;;1.44;64.61;101262.28;108119;1284;22011;-82
2022/03/09 06:38:51;;;;;;;49.40;29.20;;;;;;;1.50;64.61;101271.48;107537;1290;23159;-80
2022/03/09 06:41:27;;;;;;;47.40;27.40;;;;;;;1.58;64.55;101278.48;107489;1290;24494;-81
2022/03/09 06:45:01;;;;;;;;;;;;;;;;;;;;;
2022/03/09 06:48:19;;;;;;;36.50;23.60;;;;;;;1.70;64.23;101289.10;107482;1295;22468;-86
2022/03/09 06:51:40;;;;;;;31.10;23.80;;;;;;;1.73;64.11;101282.64;106458;1305;23862;-86
2022/03/09 06:55:02;;;;;;;;;;;;;;;;;;;;;
2022/03/09 06:58:49;;;;;;;44.70;25.70;;;;;;;2.01;64.11;101273.40;106847;1299;22027;-86
2022/03/09 07:03:05;;;;;;;;;;;;;;;;;;;;;
2022/03/09 07:07:09;;;;;;;;;;;;;;;;;;;;;
2022/03/09 07:14:21;;;;;;;31.30;22.30;;;;;;;3.18;64.22;101256.81;109465;1275;23873;-86
2022/03/09 07:17:11;;;;;;;30.00;22.80;;;;;;;3.56;64.01;101265.88;109120;1273;21995;-85
2022/03/09 07:19:48;;;;;;;36.80;24.70;;;;;;;3.95;63.97;101266.97;108691;1276;23063;-78
2022/03/09 07:22:19;;;;;;;33.30;22.80;;;;;;;4.43;63.88;101268.74;108501;1275;23110;-79
2022/03/09 07:24:57;;;;;;;30.10;22.90;;;;;;;4.94;63.39;101266.06;108582;1276;21986;-79
2022/03/09 07:27:27;;;;;;;30.70;21.90;;;;;;;5.38;62.38;101264.78;108462;1276;22775;-79
2022/03/09 07:30:01;;;;;;;31.80;22.30;;;;;;;5.86;61.51;101267.38;108646;1273;23613;-78
2022/03/09 07:32:31;;;;;;;32.00;23.60;;;;;;;6.21;59.52;101272.77;108482;1273;21991;-79
2022/03/09 07:35:22;;;;;;;29.20;21.30;;;;;;;6.54;58.05;101279.87;108502;1273;21999;-79
2022/03/09 07:37:57;;;;;;;29.50;23.40;;;;;;;6.87;57.48;101278.70;108108;1278;21995;-81
2022/03/09 07:40:26;;;;;;;30.50;21.70;;;;;;;7.28;57.11;101282.84;108241;1281;21993;-79
2022/03/09 07:42:59;;;;;;;24.50;21.60;;;;;;;7.64;55.51;101285.48;108130;1279;23614;-79
2022/03/09 07:45:45;;;;;;;28.50;21.20;;;;;;;7.98;55.26;101285.31;108497;1278;22002;-80
2022/03/09 07:48:32;;;;;;;27.50;22.90;;;;;;;8.29;53.46;101285.31;108715;1279;22018;-80
2022/03/09 07:51:14;;;;;;;31.30;23.40;;;;;;;8.41;52.15;101285.59;108240;1279;22011;-81
2022/03/09 07:53:47;;;;;;;31.20;24.90;;;;;;;8.57;51.93;101295.63;108127;1282;22171;-80
2022/03/09 07:56:20;;;;;;;25.00;22.30;;;;;;;8.77;51.53;101296.33;108185;1278;21955;-77
2022/03/09 07:58:49;;;;;;;28.90;23.00;;;;;;;9.02;51.69;101293.96;108071;1281;22026;-81
2022/03/09 08:01:21;;;;;;;24.90;20.90;;;;;;;9.31;50.78;101288.61;107458;1289;22018;-78
2022/03/09 08:03:54;;;;;;;26.90;21.20;;;;;;;9.45;49.62;101286.63;107081;1287;22008;-79
2022/03/09 08:06:24;;;;;;;26.00;21.40;;;;;;;9.68;49.62;101285.77;107257;1287;21982;-79
2022/03/09 08:09:07;;;;;;;24.10;20.50;;;;;;;9.88;48.67;101288.52;106997;1293;22952;-79
2022/03/09 08:11:39;;;;;;;23.90;21.20;;;;;;;10.09;48.56;101285.95;107174;1290;22631;-79
2022/03/09 08:14:13;;;;;;;26.20;20.30;;;;;;;10.23;47.28;101285.90;107163;1290;22029;-77
2022/03/09 08:16:43;;;;;;;32.70;23.30;;;;;;;10.32;47.07;101281.70;106502;1293;22017;-75
2022/03/09 08:19:14;;;;;;;25.60;22.70;;;;;;;10.52;46.89;101278.98;107139;1287;22070;-78
2022/03/09 08:21:44;;;;;;;25.80;21.20;;;;;;;10.70;46.45;101275.14;107502;1287;22138;-78
2022/03/09 08:24:16;;;;;;;;;;;;;;;10.95;46.02;101271.84;107598;1287;22005;-79
2022/03/09 08:26:49;;;;;;;23.10;20.60;;;;;;;11.00;44.86;101275.99;107449;1288;24321;-78
2022/03/09 08:29:42;;;;;;;22.50;18.60;;;;;;;11.11;45.14;101277.51;107896;1282;22008;-78
2022/03/09 08:32:49;;;;;;;21.60;19.10;;;;;;;11.16;43.85;101277.62;108010;1287;22014;-79
2022/03/09 08:35:24;;;;;;;23.20;19.50;;;;;;;11.10;43.81;101276.08;107598;1285;22009;-79
2022/03/09 08:38:01;;;;;;;21.10;18.70;;;;;;;11.20;43.88;101276.48;107767;1288;22012;-79
2022/03/09 08:40:31;;;;;;;28.90;23.10;;;;;;;11.43;44.17;101276.73;107539;1288;22076;-86
2022/03/09 08:43:05;;;;;;;29.60;22.90;;;;;;;11.66;43.71;101276.16;107659;1288;22456;-82
2022/03/09 08:46:01;;;;;;;20.10;18.00;;;;;;;11.86;42.71;101276.35;107762;1290;22018;-84
2022/03/09 08:49:05;;;;;;;;;;;;;;;;;;;;;
2022/03/09 08:53:01;;;;;;;24.00;21.30;;;;;;;11.75;41.81;101276.35;109956;1269;22195;-84
2022/03/09 08:56:20;;;;;;;24.70;21.70;;;;;;;11.56;41.81;101279.17;109777;1270;24583;-85
2022/03/09 08:59:35;;;;;;;22.50;20.30;;;;;;;11.48;42.00;101284.01;109964;1269;21997;-85
2022/03/09 09:06:50;;;;;;;;;;;;;;;;;;;;;
2022/03/09 09:09:43;;;;;;;21.10;18.90;;;;;;;11.74;41.15;101280.67;109481;1272;22005;-85
2022/03/09 09:13:14;;;;;;;24.90;22.20;;;;;;;11.91;41.46;101286.75;108977;1281;22266;-85
2022/03/09 09:16:32;;;;;;;22.50;20.00;;;;;;;12.30;41.63;101290.48;109120;1281;22039;-85
2022/03/09 09:20:13;;;;;;;25.00;22.30;;;;;;;12.73;40.66;101283.81;110049;1264;21999;-86
2022/03/09 09:27:44;;;;;;;23.40;19.60;;;;;;;13.20;39.54;101288.39;110308;1266;21998;-85
2022/03/09 09:31:47;;;;;;;25.10;20.90;;;;;;;13.36;38.76;101302.95;110454;1266;21939;-85
2022/03/09 09:35:39;;;;;;;25.50;21.90;;;;;;;13.54;38.38;101294.89;110150;1266;24424;-87
2022/03/09 09:39:15;;;;;;;21.00;18.80;;;;;;;13.74;37.57;101296.08;109886;1266;23022;-84
2022/03/09 09:42:49;;;;;;;21.80;19.20;;;;;;;13.62;36.85;101292.11;109481;1275;22017;-86
2022/03/09 09:46:38;;;;;;;;;;;;;;;;;;;;;
2022/03/09 09:50:13;;;;;;;;;;;;;;;;;;;;;
2022/03/09 09:53:53;;;;;;;22.90;20.50;;;;;;;13.70;36.71;101287.24;109862;1267;21948;-85
2022/03/09 09:57:43;;;;;;;21.70;19.50;;;;;;;13.74;36.80;101290.06;110028;1266;21982;-86
2022/03/09 10:01:21;;;;;;;23.70;21.00;;;;;;;13.79;36.73;101290.20;109874;1267;21968;-86
2022/03/09 10:05:04;;;;;;;24.00;17.60;;;;;;;13.89;36.23;101283.82;109861;1266;22470;-85
2022/03/09 10:08:48;;;;;;;19.20;17.20;;;;;;;14.14;36.21;101279.39;109711;1269;21994;-85
2022/03/09 10:11:24;;;;;;;19.10;17.20;;;;;;;14.49;35.52;101273.21;109711;1267;22011;-84
2022/03/09 10:15:15;;;;;;;18.60;16.80;;;;;;;14.83;35.29;101279.45;109594;1269;23068;-86
2022/03/09 10:18:54;;;;;;;19.10;17.10;;;;;;;15.31;34.62;101275.80;109657;1270;23077;-85
2022/03/09 10:21:37;;;;;;;20.90;17.30;;;;;;;15.98;34.02;101274.06;109398;1269;21984;-85
2022/03/09 10:24:17;;;;;;;21.10;18.90;;;;;;;16.62;33.09;101281.34;109485;1269;23585;-85
2022/03/09 10:26:51;;;;;;;18.80;16.10;;;;;;;17.19;32.22;101285.67;109398;1270;21961;-87
2022/03/09 10:29:23;;;;;;;17.50;13.30;;;;;;;17.71;31.31;101288.02;109420;1270;22035;-84
2022/03/09 10:31:59;;;;;;;13.70;12.40;;;;;;;18.25;30.01;101286.57;109445;1270;22089;-83
2022/03/09 10:34:37;;;;;;;27.50;15.80;;;;;;;18.71;28.69;101286.54;109175;1272;22089;-87
2022/03/09 10:37:07;;;;;;;19.80;16.70;;;;;;;19.27;28.36;101288.52;109207;1272;22055;-86
2022/03/09 10:39:39;;;;;;;17.80;13.40;;;;;;;19.84;27.38;101282.11;109051;1272;22050;-85
2022/03/09 10:42:25;;;;;;;15.60;14.00;;;;;;;20.30;26.55;101282.74;108948;1275;22006;-84
2022/03/09 10:45:00;;;;;;;13.80;12.60;;;;;;;20.75;25.76;101282.27;109056;1274;22997;-87
2022/03/09 10:47:43;;;;;;;13.90;12.50;;;;;;;21.13;25.31;101288.55;108988;1272;23556;-87
2022/03/09 10:50:22;;;;;;;45.40;14.00;;;;;;;21.62;24.69;101287.77;108983;1272;23596;-86
2022/03/09 10:52:58;;;;;;;15.60;12.20;;;;;;;22.04;23.85;101285.84;109304;1268;21950;-85
2022/03/09 10:55:37;;;;;;;13.20;10.60;;;;;;;22.52;23.11;101281.65;109486;1267;22046;-85
2022/03/09 10:58:14;;;;;;;12.80;11.60;;;;;;;23.04;22.32;101282.38;109411;1270;21993;-84
2022/03/09 11:00:56;;;;;;;11.80;10.70;;;;;;;23.10;21.32;101281.63;109420;1270;23812;-84
2022/03/09 11:03:33;;;;;;;11.50;10.40;;;;;;;23.06;21.14;101279.58;109168;1269;22039;-84
2022/03/09 11:06:05;;;;;;;12.70;10.00;;;;;;;23.24;21.04;101278.86;109063;1269;21948;-85
2022/03/09 11:08:41;;;;;;;12.10;10.80;;;;;;;23.40;20.68;101274.86;109557;1269;22033;-87
2022/03/09 11:11:40;;;;;;;17.40;12.10;;;;;;;23.55;20.28;101266.17;109246;1269;21995;-85
2022/03/09 11:14:14;;;;;;;12.00;10.60;;;;;;;23.52;19.64;101267.08;109375;1268;23625;-85
2022/03/09 11:16:48;;;;;;;11.50;10.30;;;;;;;22.81;19.49;101263.81;109071;1275;22028;-86
2022/03/09 11:19:22;;;;;;;12.70;11.20;;;;;;;21.53;19.48;101260.30;109115;1273;22000;-85
2022/03/09 11:21:57;;;;;;;11.90;10.70;;;;;;;20.19;19.91;101261.34;109064;1275;22021;-86
2022/03/09 11:24:33;;;;;;;12.90;11.50;;;;;;;18.91;20.26;101258.71;109079;1275;23032;-86
2022/03/09 11:27:07;;;;;;;13.90;12.50;;;;;;;17.64;21.12;101257.27;109083;1275;22432;-85
2022/03/09 11:29:54;;;;;;;13.70;12.40;;;;;;;16.54;22.17;101262.61;109060;1270;22657;-87
2022/03/09 11:32:41;;;;;;;13.60;12.10;;;;;;;15.53;23.07;101259.63;109137;1275;22096;-84
2022/03/09 11:35:39;;;;;;;13.90;10.90;;;;;;;14.52;24.08;101263.41;108998;1273;21996;-83
2022/03/09 11:38:36;;;;;;;12.00;10.80;;;;;;;13.63;24.96;101261.16;108660;1281;22016;-84
2022/03/09 11:41:17;;;;;;;12.80;10.70;;;;;;;12.85;25.78;101263.98;108597;1281;22057;-84
2022/03/09 11:44:22;;;;;;;12.10;10.90;;;;;;;12.32;26.65;101262.88;108736;1281;22020;-84
2022/03/09 11:47:16;;;;;;;12.30;10.50;;;;;;;11.90;27.42;101255.27;108768;1281;21991;-85
2022/03/09 11:49:58;;;;;;;16.90;12.00;;;;;;;11.52;28.10;101255.34;108620;1281;23655;-83
2022/03/09 11:53:02;;;;;;;12.40;11.10;;;;;;;11.21;28.71;101257.05;108582;1280;21992;-86
2022/03/09 11:55:39;;;;;;;12.70;10.00;;;;;;;10.93;29.18;101255.34;108622;1281;23049;-85
2022/03/09 11:59:33;;;;;;;21.10;12.30;;;;;;;10.69;29.48;101248.77;108408;1281;23059;-85
2022/03/09 12:02:15;;;;;;;15.40;10.80;;;;;;;10.44;30.05;101249.21;108939;1275;21951;-83
2022/03/09 12:04:50;;;;;;;11.90;10.10;;;;;;;10.25;30.22;101249.27;108910;1275;22008;-84
2022/03/09 12:07:49;;;;;;;23.90;12.00;;;;;;;10.11;30.52;101248.97;108663;1275;22076;-82
2022/03/09 12:10:57;;;;;;;16.60;11.60;;;;;;;9.88;30.67;101250.38;108822;1275;21999;-83
2022/03/09 12:13:53;;;;;;;14.30;11.70;;;;;;;9.63;30.82;101245.48;108651;1275;22098;-86
2022/03/09 12:17:02;;;;;;;17.00;11.30;;;;;;;9.43;31.14;101244.77;108948;1275;22389;-84
2022/03/09 12:20:21;;;;;;;12.90;9.20;;;;;;;9.28;31.47;101249.37;108906;1275;22018;-84
2022/03/09 12:23:28;;;;;;;9.10;7.80;;;;;;;9.22;32.01;101252.17;108984;1274;21958;-84
2022/03/09 12:26:02;;;;;;;12.60;10.60;;;;;;;9.21;31.88;101247.11;108990;1275;22006;-85
2022/03/09 12:28:50;;;;;;;13.10;8.90;;;;;;;9.21;31.77;101246.23;108724;1278;23070;-83
2022/03/09 12:31:26;;;;;;;13.40;10.90;;;;;;;9.20;31.71;101247.09;108810;1278;22001;-84
2022/03/09 12:34:40;;;;;;;20.40;10.40;;;;;;;9.15;31.77;101247.67;108788;1278;21991;-84
2022/03/09 12:37:18;;;;;;;17.70;11.20;;;;;;;9.08;31.81;101251.98;108621;1278;22797;-83
2022/03/09 12:40:03;;;;;;;18.30;16.40;;;;;;;9.05;32.03;101249.05;108750;1278;22109;-85
2022/03/09 12:42:42;;;;;;;17.50;14.50;;;;;;;9.07;32.30;101247.37;108616;1278;23088;-85
2022/03/09 12:45:15;;;;;;;17.40;11.50;;;;;;;9.06;32.62;101241.63;108625;1278;23063;-84
2022/03/09 12:47:54;;;;;;;;;;;;;;;9.06;33.02;101239.38;108468;1278;21980;-84
2022/03/09 12:50:34;;;;;;;15.20;10.60;;;;;;;8.97;33.05;101243.63;108450;1278;288946;-85
2022/03/09 12:53:27;;;;;;;37.90;27.50;;;;;;;8.91;33.21;101242.56;108334;1280;22066;-86
2022/03/09 12:56:29;;;;;;;32.60;23.50;;;;;;;8.83;33.18;101241.70;108548;1279;22017;-85
2022/03/09 12:59:23;;;;;;;20.80;13.20;;;;;;;8.79;33.58;101246.49;108103;1287;22005;-85
2022/03/09 13:01:54;;;;;;;18.70;14.50;;;;;;;8.80;33.85;101242.90;107982;1287;22035;-83
2022/03/09 13:04:32;;;;;;;20.50;13.70;;;;;;;8.80;33.76;101239.67;108166;1287;22042;-84